createdAt,value
2022-11-17T00:00:13.207Z,100018.50
2022-11-17T00:02:40.251Z,100010.06
2022-11-17T00:05:07.905Z,100003.66
2022-11-17T00:07:34.988Z,100012.41
2022-11-17T00:10:02.076Z,100009.88
2022-11-17T00:12:47.556Z,100008.41
2022-11-17T00:15:14.574Z,100011.16
2022-11-17T00:17:41.516Z,100010.59
2022-11-17T00:20:30.051Z,100007.06
2022-11-17T00:22:57.057Z,100009.75
2022-11-17T00:25:24.079Z,100010.06
2022-11-17T00:27:51.099Z,100008.00
2022-11-17T00:30:36.836Z,99999.50
2022-11-17T00:33:23.201Z,99997.50
2022-11-17T00:35:53.498Z,99998.06
2022-11-17T00:38:20.641Z,99997.66
2022-11-17T00:40:47.736Z,100002.63
2022-11-17T00:43:14.798Z,100004.66
2022-11-17T00:45:41.915Z,100004.78
2022-11-17T00:48:08.871Z,99985.28
2022-11-17T00:50:35.980Z,99993.59
2022-11-17T00:53:03.035Z,99996.91
2022-11-17T00:55:30.103Z,99991.56
2022-11-17T00:57:57.163Z,99993.19
2022-11-17T01:00:24.155Z,99986.78
2022-11-17T01:02:51.137Z,99988.94
2022-11-17T01:05:18.212Z,99976.84
2022-11-17T01:07:46.877Z,99985.63
2022-11-17T01:10:14.164Z,99986.66
2022-11-17T01:12:41.156Z,99986.34
2022-11-17T01:15:09.522Z,99988.19
2022-11-17T01:17:36.619Z,99974.66
2022-11-17T01:20:04.439Z,99971.97
2022-11-17T01:22:31.384Z,99967.97
2022-11-17T01:24:58.427Z,99972.59
2022-11-17T01:27:25.432Z,99966.44
2022-11-17T01:29:52.600Z,99976.84
2022-11-17T01:32:19.580Z,99973.63
2022-11-17T01:34:47.645Z,99970.31
2022-11-17T01:37:20.468Z,99971.59
2022-11-17T01:39:49.511Z,99971.34
2022-11-17T01:42:24.665Z,99979.91
2022-11-17T01:45:20.724Z,99975.16
2022-11-17T01:48:01.499Z,99962.44
2022-11-17T01:50:43.550Z,99957.19
2022-11-17T01:53:22.236Z,99956.16
2022-11-17T01:55:59.508Z,99958.94
2022-11-17T01:58:39.956Z,99943.81
2022-11-17T02:01:07.092Z,99953.47
2022-11-17T02:03:36.587Z,99949.81
2022-11-17T02:06:16.328Z,99954.59
2022-11-17T02:08:46.907Z,99952.34
2022-11-17T02:11:18.797Z,99957.09
2022-11-17T02:13:46.267Z,99965.13
2022-11-17T02:16:16.468Z,99952.84
2022-11-17T02:18:45.452Z,99952.22
2022-11-17T02:21:36.390Z,99944.06
2022-11-17T02:24:55.939Z,99954.22
2022-11-17T02:27:34.289Z,99956.16
2022-11-17T02:30:16.701Z,99950.97
2022-11-17T02:33:06.883Z,99950.50
2022-11-17T02:36:07.025Z,99953.09
2022-11-17T02:38:58.162Z,99952.34
2022-11-17T02:41:34.841Z,99949.19
2022-11-17T02:44:09.314Z,99939.56
2022-11-17T02:46:57.793Z,99937.97
2022-11-17T02:49:34.102Z,99937.84
2022-11-17T02:52:02.404Z,99930.50
2022-11-17T02:54:32.165Z,99928.19
2022-11-17T02:56:59.984Z,99932.34
2022-11-17T02:59:37.713Z,99927.84
2022-11-17T03:02:28.007Z,99924.06
2022-11-17T03:05:15.181Z,99921.84
2022-11-17T03:08:09.221Z,99913.06
2022-11-17T03:11:12.368Z,99914.19
2022-11-17T03:14:07.016Z,99910.47
2022-11-17T03:17:06.693Z,99907.59
2022-11-17T03:19:44.736Z,99907.50
2022-11-17T03:22:30.413Z,99914.19
2022-11-17T03:25:06.810Z,99912.50
2022-11-17T03:27:40.236Z,99914.34
2022-11-17T03:30:10.442Z,99915.25
2022-11-17T03:32:45.898Z,99919.34
2022-11-17T03:35:23.770Z,99906.59
2022-11-17T03:37:57.053Z,99915.25
2022-11-17T03:40:30.038Z,99908.81
2022-11-17T03:43:02.355Z,99907.69
2022-11-17T03:45:44.226Z,99900.00
2022-11-17T03:48:30.344Z,99898.34
2022-11-17T03:51:11.223Z,99897.00
2022-11-17T03:53:38.521Z,99894.03
2022-11-17T03:57:04.321Z,99900.69
2022-11-17T03:59:43.128Z,99890.22
2022-11-17T04:02:19.415Z,99892.75
2022-11-17T04:05:05.410Z,99897.34
2022-11-17T04:07:42.702Z,99886.84
2022-11-17T04:10:20.166Z,99889.34
2022-11-17T04:13:07.839Z,99891.84
2022-11-17T04:15:54.336Z,99889.78
2022-11-17T04:18:22.939Z,99885.19
2022-11-17T04:20:54.039Z,99886.50
2022-11-17T04:23:22.533Z,99890.47
2022-11-17T04:26:12.750Z,99886.88
2022-11-17T04:28:46.551Z,99877.63
2022-11-17T04:31:22.600Z,99885.19
2022-11-17T04:33:57.128Z,99887.97
2022-11-17T04:36:29.616Z,99882.97
2022-11-17T04:38:59.656Z,99885.28
2022-11-17T04:41:48.382Z,99881.13
2022-11-17T04:44:17.765Z,99880.50
2022-11-17T04:46:46.116Z,99882.63
2022-11-17T04:49:16.375Z,99862.88
2022-11-17T04:51:43.821Z,99860.28
2022-11-17T04:54:15.217Z,99856.97
2022-11-17T04:56:43.119Z,99851.78
2022-11-17T04:59:10.589Z,99862.22
2022-11-17T05:01:38.407Z,99856.88
2022-11-17T05:04:09.872Z,99864.06
2022-11-17T05:06:45.021Z,99858.44
2022-11-17T05:09:16.608Z,99864.53
2022-11-17T05:12:02.537Z,99859.19
2022-11-17T05:14:30.346Z,99860.66
2022-11-17T05:17:11.258Z,99854.94
2022-11-17T05:19:47.256Z,99850.78
2022-11-17T05:22:42.490Z,99850.50
2022-11-17T05:25:10.218Z,99856.41
2022-11-17T05:27:37.532Z,99855.38
2022-11-17T05:30:07.986Z,99848.75
2022-11-17T05:32:36.473Z,99852.81
2022-11-17T05:35:03.730Z,99855.31
2022-11-17T05:37:30.697Z,99852.72
2022-11-17T05:39:57.733Z,99837.22
2022-11-17T05:42:24.812Z,99842.94
2022-11-17T05:44:51.860Z,99836.66
2022-11-17T05:47:18.830Z,99838.88
2022-11-17T05:49:48.577Z,99829.38
2022-11-17T05:52:15.705Z,99832.53
2022-11-17T05:54:42.892Z,99821.34
2022-11-17T05:57:17.101Z,99821.53
2022-11-17T05:59:59.606Z,99830.94
2022-11-17T06:02:37.404Z,99831.38
2022-11-17T06:05:05.794Z,99830.84
2022-11-17T06:07:37.111Z,99822.19
2022-11-17T06:10:05.008Z,99823.63
2022-11-17T06:12:31.968Z,99822.44
2022-11-17T06:14:59.009Z,99822.91
2022-11-17T06:17:43.058Z,99827.34
2022-11-17T06:20:28.051Z,99828.81
2022-11-17T06:23:00.402Z,99831.38
2022-11-17T06:25:28.419Z,99830.47
2022-11-17T06:27:57.025Z,99831.88
2022-11-17T06:30:24.390Z,99827.97
2022-11-17T06:32:52.934Z,99827.13
2022-11-17T06:35:20.164Z,99831.56
2022-11-17T06:37:47.161Z,99824.75
2022-11-17T06:40:14.638Z,99825.38
2022-11-17T06:43:00.381Z,99827.88
2022-11-17T06:45:27.377Z,99818.47
2022-11-17T06:47:54.837Z,99826.13
2022-11-17T06:50:22.233Z,99819.94
2022-11-17T06:52:50.770Z,99815.50
2022-11-17T06:55:18.558Z,99813.59
2022-11-17T06:57:50.340Z,99813.38
2022-11-17T07:00:20.763Z,99807.28
2022-11-17T07:02:47.772Z,99804.34
2022-11-17T07:05:17.989Z,99803.03
2022-11-17T07:08:12.603Z,99795.00
2022-11-17T07:10:41.645Z,99795.09
2022-11-17T07:13:11.992Z,99788.34
2022-11-17T07:15:39.071Z,99790.91
2022-11-17T07:18:06.176Z,99788.00
2022-11-17T07:20:33.243Z,99788.97
2022-11-17T07:23:00.501Z,99790.00
2022-11-17T07:25:39.496Z,99793.59
2022-11-17T07:28:07.080Z,99785.56
2022-11-17T07:30:35.002Z,99792.63
2022-11-17T07:33:02.351Z,99786.22
2022-11-17T07:35:31.728Z,99787.47
2022-11-17T07:38:01.391Z,99789.13
2022-11-17T07:40:30.932Z,99787.28
2022-11-17T07:42:57.937Z,99778.59
2022-11-17T07:45:28.666Z,99781.69
2022-11-17T07:48:04.913Z,99785.44
2022-11-17T07:50:33.476Z,99789.09
2022-11-17T07:53:00.603Z,99779.44
2022-11-17T07:55:28.106Z,99792.97
2022-11-17T07:58:00.917Z,99793.44
2022-11-17T08:00:31.768Z,99788.69
2022-11-17T08:03:04.552Z,99795.75
2022-11-17T08:05:40.089Z,99793.56
2022-11-17T08:08:09.380Z,99795.75
2022-11-17T08:10:36.855Z,99803.28
2022-11-17T08:13:04.475Z,99797.38
2022-11-17T08:15:31.919Z,99804.34
2022-11-17T08:18:01.231Z,99811.25
2022-11-17T08:20:29.543Z,99806.38
2022-11-17T08:22:57.336Z,99807.63
2022-11-17T08:25:26.998Z,99809.94
2022-11-17T08:27:59.181Z,99808.88
2022-11-17T08:30:26.835Z,99805.31
2022-11-17T08:32:55.300Z,99796.25
2022-11-17T08:35:26.594Z,99795.53
2022-11-17T08:37:55.416Z,99785.91
2022-11-17T08:40:22.645Z,99783.03
2022-11-17T08:43:00.425Z,99788.50
2022-11-17T08:45:28.744Z,99782.81
2022-11-17T08:47:58.423Z,99781.84
2022-11-17T08:50:26.773Z,99782.69
2022-11-17T08:52:54.192Z,99773.06
2022-11-17T08:55:21.304Z,99777.84
2022-11-17T08:57:48.419Z,99771.84
2022-11-17T09:00:16.637Z,99774.44
2022-11-17T09:02:43.908Z,99777.16
2022-11-17T09:05:10.846Z,99785.91
2022-11-17T09:07:38.137Z,99777.66
2022-11-17T09:10:06.319Z,99782.63
2022-11-17T09:12:33.415Z,99786.78
2022-11-17T09:15:00.453Z,99777.03
2022-11-17T09:17:27.545Z,99783.47
2022-11-17T09:20:11.638Z,99777.44
2022-11-17T09:22:38.632Z,99787.72
2022-11-17T09:25:11.875Z,99791.34
2022-11-17T09:27:40.930Z,99788.63
2022-11-17T09:30:09.171Z,99780.97
2022-11-17T09:32:36.270Z,99781.59
2022-11-17T09:35:07.012Z,99776.22
2022-11-17T09:37:34.242Z,99776.22
2022-11-17T09:40:01.277Z,99773.75
2022-11-17T09:42:33.010Z,99772.13
2022-11-17T09:45:27.952Z,99772.63
2022-11-17T09:48:33.720Z,99777.47
2022-11-17T09:50:50.498Z,99766.53
2022-11-17T09:53:57.136Z,99767.00
2022-11-17T09:56:27.264Z,99777.94
2022-11-17T09:59:01.366Z,99773.78
2022-11-17T10:01:29.671Z,99768.19
2022-11-17T10:03:59.304Z,99764.25
2022-11-17T10:06:31.448Z,99765.41
2022-11-17T10:09:43.900Z,99766.75
2022-11-17T10:12:23.733Z,99772.34
2022-11-17T10:14:54.098Z,99765.09
2022-11-17T10:17:21.191Z,99778.94
2022-11-17T10:19:48.312Z,99777.47
2022-11-17T10:22:36.747Z,99776.69
2022-11-17T10:25:04.339Z,99778.75
2022-11-17T10:27:35.215Z,99769.84
2022-11-17T10:30:25.884Z,99761.59
2022-11-17T10:32:57.076Z,99751.94
2022-11-17T10:35:34.701Z,99763.72
2022-11-17T10:38:20.955Z,99757.72
2022-11-17T10:40:51.580Z,99754.75
2022-11-17T10:43:28.762Z,99752.25
2022-11-17T10:46:06.230Z,99741.16
2022-11-17T10:48:54.250Z,99744.78
2022-11-17T10:51:23.614Z,99747.28
2022-11-17T10:54:20.907Z,99741.09
2022-11-17T10:56:57.464Z,99749.59
2022-11-17T10:59:42.298Z,99732.78
2022-11-17T11:02:31.647Z,99742.72
2022-11-17T11:05:21.200Z,99739.50
2022-11-17T11:07:48.401Z,99731.03
2022-11-17T11:10:26.993Z,99731.66
2022-11-17T11:13:31.058Z,99731.44
2022-11-17T11:15:58.417Z,99716.63
2022-11-17T11:18:30.328Z,99718.06
2022-11-17T11:21:14.848Z,99714.78
2022-11-17T11:24:00.295Z,99704.59
2022-11-17T11:26:56.815Z,99702.75
2022-11-17T11:30:05.937Z,99707.50
2022-11-17T11:33:18.318Z,99701.09
2022-11-17T11:36:22.646Z,99680.97
2022-11-17T11:39:37.981Z,99689.28
2022-11-17T11:42:19.130Z,99690.94
2022-11-17T11:45:18.036Z,99680.28
2022-11-17T11:48:01.649Z,99682.03
2022-11-17T11:50:53.297Z,99677.06
2022-11-17T11:53:33.770Z,99676.84
2022-11-17T11:56:35.972Z,99673.13
2022-11-17T11:59:22.034Z,99673.75
2022-11-17T12:02:06.001Z,99678.28
2022-11-17T12:04:51.484Z,99673.13
2022-11-17T12:07:48.462Z,99670.03
2022-11-17T12:10:49.405Z,99677.78
2022-11-17T12:13:22.609Z,99678.63
2022-11-17T12:15:49.765Z,99675.72
2022-11-17T12:18:19.403Z,99668.28
2022-11-17T12:21:05.797Z,99674.38
2022-11-17T12:24:20.646Z,99673.53
2022-11-17T12:26:47.626Z,99679.66
2022-11-17T12:29:20.273Z,99676.78
2022-11-17T12:32:02.391Z,99678.72
2022-11-17T12:34:40.170Z,99671.44
2022-11-17T12:37:19.342Z,99667.84
2022-11-17T12:40:02.159Z,99666.91
2022-11-17T12:42:32.875Z,99663.38
2022-11-17T12:45:04.460Z,99667.63
2022-11-17T12:48:26.501Z,99668.16
2022-11-17T12:51:55.567Z,99673.13
2022-11-17T12:54:44.352Z,99669.09
2022-11-17T12:57:25.396Z,99669.41
2022-11-17T13:00:24.557Z,99667.00
2022-11-17T13:03:17.527Z,99653.66
2022-11-17T13:05:44.643Z,99671.88
2022-11-17T13:08:23.374Z,99665.69
2022-11-17T13:10:54.234Z,99664.66
2022-11-17T13:13:25.463Z,99671.34
2022-11-17T13:16:00.562Z,99673.13
2022-11-17T13:18:43.159Z,99670.84
2022-11-17T13:21:32.136Z,99667.94
2022-11-17T13:28:32.174Z,99660.91
2022-11-17T13:31:01.142Z,99661.94
2022-11-17T13:33:30.935Z,99677.25
2022-11-17T13:36:19.825Z,99661.81
2022-11-17T13:38:50.302Z,99663.59
2022-11-17T13:41:21.426Z,99668.47
2022-11-17T13:43:50.440Z,99666.50
2022-11-17T13:46:18.348Z,99669.38
2022-11-17T13:48:48.970Z,99666.81
2022-11-17T13:51:40.660Z,99656.34
2022-11-17T13:54:18.606Z,99662.16
2022-11-17T13:56:56.000Z,99671.25
2022-11-17T13:59:33.839Z,99655.59
2022-11-17T14:02:19.305Z,99665.22
2022-11-17T14:05:13.396Z,99654.28
2022-11-17T14:07:43.039Z,99651.16
2022-11-17T14:10:21.934Z,99659.44
2022-11-17T14:13:02.397Z,99654.13
2022-11-17T14:15:47.950Z,99651.97
2022-11-17T14:18:38.133Z,99642.56
2022-11-17T14:21:17.293Z,99649.47
2022-11-17T14:23:45.191Z,99647.31
2022-11-17T14:26:25.260Z,99650.50
2022-11-17T14:28:53.242Z,99648.13
2022-11-17T14:31:20.507Z,99652.03
2022-11-17T14:33:47.604Z,99648.53
2022-11-17T14:36:17.315Z,99653.38
2022-11-17T14:38:49.648Z,99648.72
2022-11-17T14:41:18.904Z,99654.81
2022-11-17T14:43:46.743Z,99657.41
2022-11-17T14:46:26.386Z,99660.09
2022-11-17T14:48:55.436Z,99661.00
2022-11-17T14:51:22.987Z,99651.91
2022-11-17T14:53:50.834Z,99664.34
2022-11-17T14:56:22.696Z,99659.69
2022-11-17T14:58:57.114Z,99652.31
2022-11-17T15:01:34.690Z,99649.22
2022-11-17T15:04:27.061Z,99642.09
2022-11-17T15:06:51.768Z,99645.09
2022-11-17T15:09:20.515Z,99646.75
2022-11-17T15:11:48.207Z,99648.59
2022-11-17T15:14:15.584Z,99646.75
2022-11-17T15:16:43.118Z,99639.81
2022-11-17T15:19:10.286Z,99636.41
2022-11-17T15:21:37.379Z,99641.03
2022-11-17T15:24:06.444Z,99643.44
2022-11-17T15:26:34.100Z,99640.56
2022-11-17T15:29:20.489Z,99641.25
2022-11-17T15:31:48.069Z,99639.59
2022-11-17T15:34:19.940Z,99636.19
2022-11-17T15:36:48.960Z,99629.53
2022-11-17T15:39:17.002Z,99638.34
2022-11-17T15:41:45.160Z,99640.91
2022-11-17T15:44:12.137Z,99634.81
2022-11-17T15:46:44.342Z,99640.50
2022-11-17T15:49:14.604Z,99630.16
2022-11-17T15:51:41.775Z,99638.94
2022-11-17T15:54:16.678Z,99636.28
2022-11-17T15:56:47.578Z,99640.28
2022-11-17T15:59:15.207Z,99650.63
2022-11-17T16:01:42.524Z,99638.66
2022-11-17T16:04:14.671Z,99647.34
2022-11-17T16:06:44.958Z,99640.16
2022-11-17T16:09:17.489Z,99643.84
2022-11-17T16:11:47.483Z,99637.28
2022-11-17T16:14:14.996Z,99650.50
2022-11-17T16:16:43.674Z,99636.56
2022-11-17T16:19:10.851Z,99638.50
2022-11-17T16:21:38.629Z,99638.41
2022-11-17T16:24:07.997Z,99644.03
2022-11-17T16:26:35.761Z,99637.72
2022-11-17T16:29:07.408Z,99641.44
2022-11-17T16:31:36.629Z,99641.63
2022-11-17T16:34:21.799Z,99636.38
2022-11-17T16:36:48.830Z,99636.19
2022-11-17T16:39:17.379Z,99626.84
2022-11-17T16:41:46.573Z,99629.44
2022-11-17T16:44:18.152Z,99624.56
2022-11-17T16:46:50.091Z,99621.13
2022-11-17T16:49:19.917Z,99625.97
2022-11-17T16:52:10.469Z,99612.91
2022-11-17T16:54:37.754Z,99624.00
2022-11-17T16:57:04.918Z,99621.41
2022-11-17T16:59:31.994Z,99618.09
2022-11-17T17:01:59.044Z,99625.09
2022-11-17T17:04:30.519Z,99618.88
2022-11-17T17:06:58.357Z,99633.78
2022-11-17T17:09:28.055Z,99632.13
2022-11-17T17:12:02.815Z,99638.97
2022-11-17T17:14:29.951Z,99645.78
2022-11-17T17:16:57.217Z,99644.50
2022-11-17T17:19:24.380Z,99631.06
2022-11-17T17:21:52.924Z,99640.91
2022-11-17T17:24:19.973Z,99642.66
2022-11-17T17:26:47.472Z,99642.88
2022-11-17T17:29:14.952Z,99643.88
2022-11-17T17:31:42.718Z,99649.66
2022-11-17T17:34:14.168Z,99646.94
2022-11-17T17:36:41.449Z,99642.31
2022-11-17T17:39:08.443Z,99637.00
2022-11-17T17:41:40.815Z,99646.56
2022-11-17T17:44:08.893Z,99649.41
2022-11-17T17:46:38.647Z,99644.91
2022-11-17T17:49:06.804Z,99650.06
2022-11-17T17:51:44.217Z,99648.22
2022-11-17T17:54:21.132Z,99644.75
2022-11-17T17:56:48.822Z,99647.56
2022-11-17T17:59:16.658Z,99656.91
2022-11-17T18:01:46.108Z,99646.22
2022-11-17T18:04:16.242Z,99646.03
2022-11-17T18:06:48.251Z,99644.66
2022-11-17T18:09:19.116Z,99648.25
2022-11-17T18:11:50.064Z,99648.25
2022-11-17T18:14:22.368Z,99657.66
2022-11-17T18:16:50.986Z,99649.59
2022-11-17T18:19:19.413Z,99647.03
2022-11-17T18:21:46.881Z,99644.84
2022-11-17T18:24:14.026Z,99648.06
2022-11-17T18:26:47.515Z,99650.66
2022-11-17T18:29:18.689Z,99645.66
2022-11-17T18:31:47.570Z,99644.19
2022-11-17T18:34:26.351Z,99648.75
2022-11-17T18:36:55.791Z,99651.84
2022-11-17T18:39:23.448Z,99647.25
2022-11-17T18:41:50.723Z,99654.53
2022-11-17T18:44:19.614Z,99657.69
2022-11-17T18:46:50.420Z,99657.09
2022-11-17T18:49:17.768Z,99651.41
2022-11-17T18:51:45.768Z,99654.91
2022-11-17T18:54:13.459Z,99653.91
2022-11-17T18:56:40.587Z,99664.13
2022-11-17T18:59:11.458Z,99658.84
2022-11-17T19:01:42.195Z,99658.59
2022-11-17T19:04:13.538Z,99658.03
2022-11-17T19:06:40.914Z,99658.59
2022-11-17T19:09:08.243Z,99653.81
2022-11-17T19:11:35.319Z,99663.03
2022-11-17T19:14:04.151Z,99660.44
2022-11-17T19:16:32.781Z,99656.41
2022-11-17T19:19:00.463Z,99661.75
2022-11-17T19:21:31.669Z,99656.94
2022-11-17T19:24:03.204Z,99646.28
2022-11-17T19:26:34.139Z,99643.44
2022-11-17T19:29:09.876Z,99646.72
2022-11-17T19:31:39.863Z,99655.69
2022-11-17T19:34:06.973Z,99648.50
2022-11-17T19:36:34.617Z,99654.59
2022-11-17T19:39:03.672Z,99649.88
2022-11-17T19:41:38.209Z,99661.19
2022-11-17T19:44:08.639Z,99665.25
2022-11-17T19:46:36.904Z,99661.31
2022-11-17T19:49:06.205Z,99670.25
2022-11-17T19:51:36.853Z,99664.34
2022-11-17T19:54:08.350Z,99668.13
2022-11-17T19:56:39.349Z,99660.25
2022-11-17T19:59:11.001Z,99673.16
2022-11-17T20:01:41.132Z,99674.91
2022-11-17T20:04:08.187Z,99671.84
2022-11-17T20:06:38.301Z,99682.16
2022-11-17T20:09:12.061Z,99677.81
2022-11-17T20:11:40.147Z,99669.94
2022-11-17T20:14:07.736Z,99684.88
2022-11-17T20:16:36.656Z,99679.00
2022-11-17T20:19:03.708Z,99678.56
2022-11-17T20:21:31.424Z,99673.31
2022-11-17T20:23:59.276Z,99679.91
2022-11-17T20:26:31.876Z,99685.41
2022-11-17T20:29:00.569Z,99682.09
2022-11-17T20:31:32.110Z,99679.28
2022-11-17T20:34:01.484Z,99684.94
2022-11-17T20:36:32.631Z,99686.25
2022-11-17T20:39:03.508Z,99680.41
2022-11-17T20:41:31.326Z,99678.97
2022-11-17T20:44:00.571Z,99679.03
2022-11-17T20:46:28.191Z,99684.94
2022-11-17T20:48:55.466Z,99677.63
2022-11-17T20:51:25.202Z,99690.34
2022-11-17T20:53:52.779Z,99682.09
2022-11-17T20:56:20.303Z,99686.09
2022-11-17T20:58:47.461Z,99689.00
2022-11-17T21:01:21.588Z,99693.50
2022-11-17T21:03:49.257Z,99698.47
2022-11-17T21:06:16.778Z,99692.75
2022-11-17T21:08:45.535Z,99683.53
2022-11-17T21:11:41.881Z,99682.63
2022-11-17T21:14:12.635Z,99694.75
2022-11-17T21:16:45.504Z,99691.34
2022-11-17T21:19:14.522Z,99697.63
2022-11-17T21:21:43.685Z,99701.66
2022-11-17T21:24:11.361Z,99695.88
2022-11-17T21:26:38.510Z,99693.09
2022-11-17T21:29:06.923Z,99688.13
2022-11-17T21:31:43.978Z,99695.88
2022-11-17T21:34:17.500Z,99700.44
2022-11-17T21:36:44.625Z,99687.63
2022-11-17T21:39:18.045Z,99694.13
2022-11-17T21:41:45.743Z,99697.28
2022-11-17T21:44:15.749Z,99694.78
2022-11-17T21:46:42.842Z,99685.31
2022-11-17T21:49:09.832Z,99689.38
2022-11-17T21:51:38.470Z,99689.91
2022-11-17T21:54:10.011Z,99688.16
2022-11-17T21:56:37.745Z,99693.00
2022-11-17T21:59:13.265Z,99696.97
2022-11-17T22:01:40.680Z,99700.53
2022-11-17T22:04:07.801Z,99693.47
2022-11-17T22:06:35.106Z,99690.97
2022-11-17T22:09:02.124Z,99702.94
2022-11-17T22:11:37.678Z,99704.88
2022-11-17T22:14:19.250Z,99719.47
2022-11-17T22:16:51.879Z,99709.09
2022-11-17T22:19:21.806Z,99713.75
2022-11-17T22:21:52.569Z,99717.25
2022-11-17T22:24:21.161Z,99711.34
2022-11-17T22:26:48.811Z,99718.25
2022-11-17T22:29:21.763Z,99725.38
2022-11-17T22:31:50.529Z,99725.31
2022-11-17T22:34:18.581Z,99719.25
2022-11-17T22:36:46.022Z,99713.94
2022-11-17T22:39:13.346Z,99713.09
2022-11-17T22:41:40.365Z,99710.75
2022-11-17T22:44:07.454Z,99713.75
2022-11-17T22:46:36.065Z,99714.75
2022-11-17T22:49:03.514Z,99713.84
2022-11-17T22:51:49.376Z,99715.25
2022-11-17T22:54:16.630Z,99720.75
2022-11-17T22:56:43.610Z,99729.97
2022-11-17T22:59:10.614Z,99729.16
2022-11-17T23:01:38.037Z,99730.06
2022-11-17T23:04:06.069Z,99730.81
2022-11-17T23:06:33.154Z,99732.78
2022-11-17T23:09:00.213Z,99735.44
2022-11-17T23:11:43.404Z,99745.09
2022-11-17T23:14:14.051Z,99749.91
2022-11-17T23:16:41.274Z,99752.16
2022-11-17T23:19:13.178Z,99753.31
2022-11-17T23:21:40.788Z,99741.84
2022-11-17T23:24:09.859Z,99742.16
2022-11-17T23:26:36.859Z,99750.34
2022-11-17T23:29:03.936Z,99747.75
2022-11-17T23:31:30.943Z,99745.34
2022-11-17T23:33:57.976Z,99750.66
2022-11-17T23:36:25.143Z,99749.81
2022-11-17T23:38:54.771Z,99751.56
2022-11-17T23:41:21.914Z,99759.81
2022-11-17T23:43:54.326Z,99757.63
2022-11-17T23:46:26.336Z,99759.53
2022-11-17T23:48:55.217Z,99757.59
2022-11-17T23:51:26.744Z,99746.75
2022-11-17T23:53:53.990Z,99746.31
2022-11-17T23:56:21.569Z,99752.63
2022-11-17T23:58:49.932Z,99750.16
